< Cyclone 199407 1994 Season Cyclone 199409 >
Cyclone 199408 (SHARON)
General InformationTrack Information on Google MapsDetailed Wind InformationList of All Images || ResourceGoogle EarthGE AnimationAtom FeedGeoJSON
Detalied Best Track (Time Zone = UTC)
Year Month Day Hour Lat. Long. Pressure (hPa) Wind (kt) Class Image Chart
1994 3 12 06 -9.8 119.0 1005 19 2 Image --
1994 3 12 12 -9.8 118.2 1005 19 2 Image --
1994 3 12 18 -9.8 117.4 1000 27 2 Image --
1994 3 13 00 -9.8 116.6 1000 27 2 Image --
1994 3 13 03 -10.0 116.2 1000 27 2 Image --
1994 3 13 06 -10.2 115.8 1000 27 2 Image --
1994 3 13 09 -10.4 115.4 1000 27 2 Image --
1994 3 13 12 -10.6 115.0 995 35 3 Image --
1994 3 13 15 -10.7 114.7 995 35 3 Image --
1994 3 13 18 -10.8 114.5 995 35 3 Image --
1994 3 13 21 -11.0 114.5 990 41 3 Image --
1994 3 14 00 -11.3 114.5 990 41 3 Image --
1994 3 14 03 -11.6 114.5 990 41 3 Image --
1994 3 14 06 -12.1 114.4 985 47 3 Image --
1994 3 14 09 -12.6 114.2 980 54 4 Image --
1994 3 14 12 -13.0 114.1 975 60 4 Image --
1994 3 14 15 -13.3 113.8 970 66 5 Image --
1994 3 14 18 -13.6 113.6 965 70 5 Image --
1994 3 14 21 -13.8 113.5 960 76 5 Image --
1994 3 15 00 -14.1 113.5 955 80 5 Image --
1994 3 15 03 -14.4 113.2 950 84 5 Image --
1994 3 15 06 -14.8 112.9 945 89 5 Image --
1994 3 15 09 -15.3 112.8 935 97 5 Image --
1994 3 15 12 -15.8 112.7 930 101 5 Image --
1994 3 15 15 -16.2 112.4 935 97 5 Image --
1994 3 15 18 -16.5 112.3 945 89 5 Image --
1994 3 15 21 -16.8 112.2 950 84 5 Image --
1994 3 16 00 -17.1 112.2 955 80 5 Image --
1994 3 16 03 -17.3 112.1 960 76 5 Image --
1994 3 16 06 -17.4 111.7 965 70 5 Image --
1994 3 16 09 -17.5 111.3 970 66 5 Image --
1994 3 16 12 -17.6 110.8 975 60 4 Image --
1994 3 16 15 -17.7 110.4 980 54 4 Image --
1994 3 16 18 -17.7 109.9 980 54 4 Image --
1994 3 16 21 -17.8 109.5 985 47 3 Image --
1994 3 17 00 -17.9 109.1 985 47 3 Image --
1994 3 17 03 -18.1 108.7 985 47 3 Image --
1994 3 17 06 -18.3 108.3 985 47 3 Image --
1994 3 17 09 -18.6 107.9 985 47 3 Image --
1994 3 17 12 -18.8 107.4 990 41 3 Image --
1994 3 17 15 -19.1 107.1 990 41 3 Image --
1994 3 17 18 -19.4 106.7 990 41 3 Image --
1994 3 17 21 -19.8 106.3 995 35 3 Image --
1994 3 18 00 -20.2 105.9 995 35 3 Image --
1994 3 18 06 -20.8 105.4 995 35 3 Image --
1994 3 18 12 -21.3 104.9 995 35 3 Image --
1994 3 18 18 -22.0 104.4 995 35 3 Image --
1994 3 19 00 -22.6 104.1 1000 27 2 Image --
1994 3 19 06 -23.3 104.2 1000 27 2 Image --
1994 3 19 09 -23.4 104.3 1000 27 2 Image --
1994 3 19 12 -23.5 104.3 1000 27 2 Image --
1994 3 19 15 -23.7 104.2 1000 27 2 Image --
1994 3 19 18 -23.9 103.9 1000 27 2 Image --
1994 3 19 21 -24.1 103.9 1000 27 2 Image --
1994 3 20 00 -24.4 103.9 1000 27 2 Image --
1994 3 20 06 -25.4 103.9 1000 27 2 Image --
1994 3 20 12 -26.4 104.0 1005 19 2 Image --
1994 3 20 18 -27.2 104.4 1005 19 2 Image --
1994 3 21 00 -27.9 104.7 1005 19 2 Image --
1994 3 21 06 -29.5 105.6 1005 19 2 Image --
1994 3 21 12 -30.7 106.8 1005 19 2 Image --
1994 3 21 18 -31.5 108.5 1010 0 0 Image --
1994 3 22 00 -32.1 110.6 1010 0 0 Image --
< Cyclone 199407 1994 Season Cyclone 199409 >

Help